sensor_id;sensor_type;location;lat;lon;timestamp;temperature;humidity
2625;DHT22;1322;53.256;10.386;2022-10-31T14:48:56;15.80;99.90
2625;DHT22;1322;53.256;10.386;2022-10-31T14:51:39;15.70;99.90
2625;DHT22;1322;53.256;10.386;2022-10-31T14:54:10;15.50;99.90
2625;DHT22;1322;53.256;10.386;2022-10-31T14:56:46;15.40;99.90
2625;DHT22;1322;53.256;10.386;2022-10-31T14:59:18;15.40;99.90
2625;DHT22;1322;53.256;10.386;2022-10-31T15:02:01;15.40;99.90
2625;DHT22;1322;53.256;10.386;2022-10-31T15:04:35;15.30;99.90
2625;DHT22;1322;53.256;10.386;2022-10-31T15:07:15;15.30;99.90
2625;DHT22;1322;53.256;10.386;2022-10-31T15:09:42;15.20;99.90
2625;DHT22;1322;53.256;10.386;2022-10-31T15:12:29;15.20;99.90
2625;DHT22;1322;53.256;10.386;2022-10-31T15:14:55;15.30;99.90
2625;DHT22;1322;53.256;10.386;2022-10-31T15:17:23;15.30;99.90
2625;DHT22;1322;53.256;10.386;2022-10-31T15:19:49;15.40;99.90
2625;DHT22;1322;53.256;10.386;2022-10-31T15:22:17;15.20;99.90
2625;DHT22;1322;53.256;10.386;2022-10-31T15:24:43;15.30;99.90
2625;DHT22;1322;53.256;10.386;2022-10-31T15:27:15;15.10;99.90
2625;DHT22;1322;53.256;10.386;2022-10-31T15:30:16;15.10;99.90
2625;DHT22;1322;53.256;10.386;2022-10-31T15:32:44;15.00;99.90
2625;DHT22;1322;53.256;10.386;2022-10-31T15:35:10;15.00;99.90
2625;DHT22;1322;53.256;10.386;2022-10-31T15:37:36;15.00;99.90
2625;DHT22;1322;53.256;10.386;2022-10-31T15:40:15;15.00;99.90
2625;DHT22;1322;53.256;10.386;2022-10-31T15:42:41;14.90;99.90
2625;DHT22;1322;53.256;10.386;2022-10-31T15:47:36;14.80;99.90
2625;DHT22;1322;53.256;10.386;2022-10-31T15:50:05;14.80;99.90
2625;DHT22;1322;53.256;10.386;2022-10-31T15:52:43;14.60;99.90
2625;DHT22;1322;53.256;10.386;2022-10-31T15:57:45;14.40;99.90
2625;DHT22;1322;53.256;10.386;2022-10-31T16:00:24;14.30;99.90
2625;DHT22;1322;53.256;10.386;2022-10-31T16:03:00;14.20;99.90
2625;DHT22;1322;53.256;10.386;2022-10-31T16:05:47;14.20;99.90
2625;DHT22;1322;53.256;10.386;2022-10-31T16:13:27;14.30;99.90
2625;DHT22;1322;53.256;10.386;2022-10-31T16:16:14;14.40;99.90
2625;DHT22;1322;53.256;10.386;2022-10-31T16:18:40;14.20;99.90
2625;DHT22;1322;53.256;10.386;2022-10-31T16:21:07;14.20;99.90
2625;DHT22;1322;53.256;10.386;2022-10-31T16:23:34;14.30;99.90
2625;DHT22;1322;53.256;10.386;2022-10-31T16:26:04;14.40;99.90
2625;DHT22;1322;53.256;10.386;2022-10-31T16:28:36;14.40;99.90
2625;DHT22;1322;53.256;10.386;2022-10-31T16:31:13;14.40;99.90
2625;DHT22;1322;53.256;10.386;2022-10-31T16:33:39;14.50;99.90
2625;DHT22;1322;53.256;10.386;2022-10-31T16:38:56;14.60;99.90
2625;DHT22;1322;53.256;10.386;2022-10-31T16:41:23;14.60;99.90
2625;DHT22;1322;53.256;10.386;2022-10-31T16:43:49;14.60;99.90
2625;DHT22;1322;53.256;10.386;2022-10-31T16:46:20;14.60;99.90
2625;DHT22;1322;53.256;10.386;2022-10-31T16:48:47;14.70;99.90
2625;DHT22;1322;53.256;10.386;2022-10-31T16:51:12;14.60;99.90
2625;DHT22;1322;53.256;10.386;2022-10-31T16:53:38;14.50;99.90
2625;DHT22;1322;53.256;10.386;2022-10-31T16:56:04;14.40;99.90
2625;DHT22;1322;53.256;10.386;2022-10-31T16:58:32;14.40;99.90
2625;DHT22;1322;53.256;10.386;2022-10-31T17:00:59;14.40;99.90
2625;DHT22;1322;53.256;10.386;2022-10-31T17:03:25;14.40;99.90
2625;DHT22;1322;53.256;10.386;2022-10-31T17:05:51;14.30;99.90
2625;DHT22;1322;53.256;10.386;2022-10-31T17:08:17;14.40;99.90
2625;DHT22;1322;53.256;10.386;2022-10-31T17:10:43;14.20;99.90
2625;DHT22;1322;53.256;10.386;2022-10-31T17:13:15;14.20;99.90
2625;DHT22;1322;53.256;10.386;2022-10-31T17:15:45;14.10;99.90
2625;DHT22;1322;53.256;10.386;2022-10-31T17:18:15;14.20;99.90
2625;DHT22;1322;53.256;10.386;2022-10-31T17:20:42;14.20;99.90
2625;DHT22;1322;53.256;10.386;2022-10-31T17:23:13;14.20;99.90
2625;DHT22;1322;53.256;10.386;2022-10-31T17:25:39;14.10;99.90
2625;DHT22;1322;53.256;10.386;2022-10-31T17:28:05;14.20;99.90
2625;DHT22;1322;53.256;10.386;2022-10-31T17:30:32;14.30;99.90
2625;DHT22;1322;53.256;10.386;2022-10-31T17:32:59;14.10;99.90
2625;DHT22;1322;53.256;10.386;2022-10-31T17:35:25;14.10;99.90
2625;DHT22;1322;53.256;10.386;2022-10-31T17:37:51;14.10;99.90
2625;DHT22;1322;53.256;10.386;2022-10-31T17:40:18;14.10;99.90
2625;DHT22;1322;53.256;10.386;2022-10-31T17:42:52;14.20;99.90
2625;DHT22;1322;53.256;10.386;2022-10-31T17:45:18;14.30;99.90
2625;DHT22;1322;53.256;10.386;2022-10-31T17:47:46;14.50;99.90
2625;DHT22;1322;53.256;10.386;2022-10-31T17:50:13;14.60;99.90
2625;DHT22;1322;53.256;10.386;2022-10-31T17:52:39;14.60;99.90
2625;DHT22;1322;53.256;10.386;2022-10-31T17:55:04;14.80;99.90
2625;DHT22;1322;53.256;10.386;2022-10-31T17:57:34;14.80;99.90
2625;DHT22;1322;53.256;10.386;2022-10-31T18:00:02;14.80;99.90
2625;DHT22;1322;53.256;10.386;2022-10-31T18:02:28;14.70;99.90
2625;DHT22;1322;53.256;10.386;2022-10-31T18:04:53;14.60;99.90
2625;DHT22;1322;53.256;10.386;2022-10-31T18:07:19;14.70;99.90
2625;DHT22;1322;53.256;10.386;2022-10-31T18:09:46;14.70;99.90
2625;DHT22;1322;53.256;10.386;2022-10-31T18:12:12;14.60;99.90
2625;DHT22;1322;53.256;10.386;2022-10-31T18:14:38;14.60;99.90
2625;DHT22;1322;53.256;10.386;2022-10-31T18:17:05;14.60;99.90
2625;DHT22;1322;53.256;10.386;2022-10-31T18:19:31;14.50;99.90
2625;DHT22;1322;53.256;10.386;2022-10-31T18:21:57;14.50;99.90
2625;DHT22;1322;53.256;10.386;2022-10-31T18:24:22;14.20;99.90
2625;DHT22;1322;53.256;10.386;2022-10-31T18:26:48;14.20;99.90
2625;DHT22;1322;53.256;10.386;2022-10-31T18:29:14;14.20;99.90
2625;DHT22;1322;53.256;10.386;2022-10-31T18:31:40;14.10;99.90
2625;DHT22;1322;53.256;10.386;2022-10-31T18:34:06;14.10;99.90
2625;DHT22;1322;53.256;10.386;2022-10-31T18:36:32;14.30;99.90
2625;DHT22;1322;53.256;10.386;2022-10-31T18:38:57;14.30;99.90
2625;DHT22;1322;53.256;10.386;2022-10-31T18:41:23;14.40;99.90
2625;DHT22;1322;53.256;10.386;2022-10-31T18:43:48;14.40;99.90
2625;DHT22;1322;53.256;10.386;2022-10-31T18:46:15;14.50;99.90
2625;DHT22;1322;53.256;10.386;2022-10-31T18:48:43;14.60;99.90
2625;DHT22;1322;53.256;10.386;2022-10-31T18:51:10;14.60;99.90
2625;DHT22;1322;53.256;10.386;2022-10-31T18:53:37;14.70;99.90
2625;DHT22;1322;53.256;10.386;2022-10-31T18:56:08;14.90;99.90
2625;DHT22;1322;53.256;10.386;2022-10-31T18:58:33;15.00;99.90
2625;DHT22;1322;53.256;10.386;2022-10-31T19:00:59;15.10;99.90
2625;DHT22;1322;53.256;10.386;2022-10-31T19:03:29;15.10;99.90
2625;DHT22;1322;53.256;10.386;2022-10-31T19:05:55;15.00;99.90
2625;DHT22;1322;53.256;10.386;2022-10-31T19:08:21;14.90;99.90
2625;DHT22;1322;53.256;10.386;2022-10-31T19:10:47;14.80;99.90
2625;DHT22;1322;53.256;10.386;2022-10-31T19:13:12;14.60;99.90
2625;DHT22;1322;53.256;10.386;2022-10-31T19:15:38;14.70;99.90
2625;DHT22;1322;53.256;10.386;2022-10-31T19:18:04;14.60;99.90
2625;DHT22;1322;53.256;10.386;2022-10-31T19:20:30;14.50;99.90
2625;DHT22;1322;53.256;10.386;2022-10-31T19:22:55;14.20;99.90
2625;DHT22;1322;53.256;10.386;2022-10-31T19:25:21;14.00;99.90
2625;DHT22;1322;53.256;10.386;2022-10-31T19:27:46;14.00;99.90
2625;DHT22;1322;53.256;10.386;2022-10-31T19:30:12;14.00;99.90
2625;DHT22;1322;53.256;10.386;2022-10-31T19:32:38;13.90;99.90
2625;DHT22;1322;53.256;10.386;2022-10-31T19:35:05;13.90;99.90
2625;DHT22;1322;53.256;10.386;2022-10-31T19:37:34;14.00;99.90
2625;DHT22;1322;53.256;10.386;2022-10-31T19:40:00;14.10;99.90
2625;DHT22;1322;53.256;10.386;2022-10-31T19:42:26;14.20;99.90
2625;DHT22;1322;53.256;10.386;2022-10-31T19:44:53;14.40;99.90
2625;DHT22;1322;53.256;10.386;2022-10-31T19:47:18;14.50;99.90
2625;DHT22;1322;53.256;10.386;2022-10-31T19:49:44;14.50;99.90
2625;DHT22;1322;53.256;10.386;2022-10-31T19:52:09;14.60;99.90
2625;DHT22;1322;53.256;10.386;2022-10-31T19:54:35;14.50;99.90
2625;DHT22;1322;53.256;10.386;2022-10-31T19:57:01;14.60;99.90
2625;DHT22;1322;53.256;10.386;2022-10-31T19:59:26;14.60;99.90
2625;DHT22;1322;53.256;10.386;2022-10-31T20:01:52;14.40;99.90
2625;DHT22;1322;53.256;10.386;2022-10-31T20:04:17;14.20;99.90
2625;DHT22;1322;53.256;10.386;2022-10-31T20:06:43;14.10;99.90
2625;DHT22;1322;53.256;10.386;2022-10-31T20:09:11;14.10;99.90
2625;DHT22;1322;53.256;10.386;2022-10-31T20:11:41;14.10;99.90
2625;DHT22;1322;53.256;10.386;2022-10-31T20:14:09;14.20;99.90
2625;DHT22;1322;53.256;10.386;2022-10-31T20:16:35;14.40;99.90
2625;DHT22;1322;53.256;10.386;2022-10-31T20:19:01;14.60;99.90
2625;DHT22;1322;53.256;10.386;2022-10-31T20:21:28;14.80;99.90
2625;DHT22;1322;53.256;10.386;2022-10-31T20:23:59;14.90;99.90
2625;DHT22;1322;53.256;10.386;2022-10-31T20:26:27;14.80;99.90
2625;DHT22;1322;53.256;10.386;2022-10-31T20:28:55;14.90;99.90
2625;DHT22;1322;53.256;10.386;2022-10-31T20:31:23;15.00;99.90
2625;DHT22;1322;53.256;10.386;2022-10-31T20:33:49;15.00;99.90
2625;DHT22;1322;53.256;10.386;2022-10-31T20:36:15;15.10;99.90
2625;DHT22;1322;53.256;10.386;2022-10-31T20:38:46;15.00;99.90
2625;DHT22;1322;53.256;10.386;2022-10-31T20:41:12;15.00;99.90
2625;DHT22;1322;53.256;10.386;2022-10-31T20:43:38;14.90;99.90
2625;DHT22;1322;53.256;10.386;2022-10-31T20:46:17;14.80;99.90
2625;DHT22;1322;53.256;10.386;2022-10-31T20:48:43;14.80;99.90
2625;DHT22;1322;53.256;10.386;2022-10-31T20:51:13;14.80;99.90
2625;DHT22;1322;53.256;10.386;2022-10-31T20:53:39;14.80;99.90
2625;DHT22;1322;53.256;10.386;2022-10-31T20:56:16;15.00;99.90
2625;DHT22;1322;53.256;10.386;2022-10-31T20:58:43;15.00;99.90
2625;DHT22;1322;53.256;10.386;2022-10-31T21:01:16;15.00;99.90
2625;DHT22;1322;53.256;10.386;2022-10-31T21:03:43;15.00;99.90
2625;DHT22;1322;53.256;10.386;2022-10-31T21:06:09;14.90;99.90
2625;DHT22;1322;53.256;10.386;2022-10-31T21:08:36;14.80;99.90
2625;DHT22;1322;53.256;10.386;2022-10-31T21:11:07;14.80;99.90
2625;DHT22;1322;53.256;10.386;2022-10-31T21:13:37;14.80;99.90
2625;DHT22;1322;53.256;10.386;2022-10-31T21:16:10;14.70;99.90
2625;DHT22;1322;53.256;10.386;2022-10-31T21:18:37;14.70;99.90
2625;DHT22;1322;53.256;10.386;2022-10-31T21:21:26;14.50;99.90
2625;DHT22;1322;53.256;10.386;2022-10-31T21:23:54;14.40;99.90
2625;DHT22;1322;53.256;10.386;2022-10-31T21:26:22;14.40;99.90
2625;DHT22;1322;53.256;10.386;2022-10-31T21:28:49;14.50;99.90
2625;DHT22;1322;53.256;10.386;2022-10-31T21:31:17;14.60;99.90
2625;DHT22;1322;53.256;10.386;2022-10-31T21:33:43;14.40;99.90
2625;DHT22;1322;53.256;10.386;2022-10-31T21:36:10;14.50;99.90
2625;DHT22;1322;53.256;10.386;2022-10-31T21:38:36;14.40;99.90
2625;DHT22;1322;53.256;10.386;2022-10-31T21:41:07;14.50;99.90
2625;DHT22;1322;53.256;10.386;2022-10-31T21:43:35;14.50;99.90
2625;DHT22;1322;53.256;10.386;2022-10-31T21:46:05;14.50;99.90
2625;DHT22;1322;53.256;10.386;2022-10-31T21:48:31;14.40;99.90
2625;DHT22;1322;53.256;10.386;2022-10-31T21:51:02;14.40;99.90
2625;DHT22;1322;53.256;10.386;2022-10-31T21:53:28;14.40;99.90
2625;DHT22;1322;53.256;10.386;2022-10-31T21:56:12;14.20;99.90
2625;DHT22;1322;53.256;10.386;2022-10-31T21:58:37;14.20;99.90
2625;DHT22;1322;53.256;10.386;2022-10-31T22:01:03;14.20;99.90
2625;DHT22;1322;53.256;10.386;2022-10-31T22:03:29;14.30;99.90
2625;DHT22;1322;53.256;10.386;2022-10-31T22:05:54;14.30;99.90
2625;DHT22;1322;53.256;10.386;2022-10-31T22:08:20;14.20;99.90
2625;DHT22;1322;53.256;10.386;2022-10-31T22:10:46;14.20;99.90
2625;DHT22;1322;53.256;10.386;2022-10-31T22:13:11;14.10;99.90
2625;DHT22;1322;53.256;10.386;2022-10-31T22:15:37;14.10;99.90
2625;DHT22;1322;53.256;10.386;2022-10-31T22:18:02;13.90;99.90
2625;DHT22;1322;53.256;10.386;2022-10-31T22:20:28;13.90;99.90
2625;DHT22;1322;53.256;10.386;2022-10-31T22:22:54;13.80;99.90
2625;DHT22;1322;53.256;10.386;2022-10-31T22:25:19;14.00;99.90
2625;DHT22;1322;53.256;10.386;2022-10-31T22:27:45;14.10;99.90
2625;DHT22;1322;53.256;10.386;2022-10-31T22:30:10;13.90;99.90
2625;DHT22;1322;53.256;10.386;2022-10-31T22:32:36;13.70;99.90
2625;DHT22;1322;53.256;10.386;2022-10-31T22:35:02;13.70;99.90
2625;DHT22;1322;53.256;10.386;2022-10-31T22:37:27;13.50;99.90
2625;DHT22;1322;53.256;10.386;2022-10-31T22:39:53;13.70;99.90
2625;DHT22;1322;53.256;10.386;2022-10-31T22:42:18;13.80;99.90
2625;DHT22;1322;53.256;10.386;2022-10-31T22:44:44;13.90;99.90
2625;DHT22;1322;53.256;10.386;2022-10-31T22:47:09;14.10;99.90
2625;DHT22;1322;53.256;10.386;2022-10-31T22:49:35;14.20;99.90
2625;DHT22;1322;53.256;10.386;2022-10-31T22:52:00;14.30;99.90
2625;DHT22;1322;53.256;10.386;2022-10-31T22:54:28;14.20;99.90
2625;DHT22;1322;53.256;10.386;2022-10-31T22:56:53;14.30;99.90
2625;DHT22;1322;53.256;10.386;2022-10-31T22:59:19;14.30;99.90
2625;DHT22;1322;53.256;10.386;2022-10-31T23:01:46;14.40;99.90
2625;DHT22;1322;53.256;10.386;2022-10-31T23:04:13;14.40;99.90
2625;DHT22;1322;53.256;10.386;2022-10-31T23:06:39;14.20;99.90
2625;DHT22;1322;53.256;10.386;2022-10-31T23:09:06;14.30;99.90
2625;DHT22;1322;53.256;10.386;2022-10-31T23:11:34;14.30;99.90
2625;DHT22;1322;53.256;10.386;2022-10-31T23:14:02;14.20;99.90
2625;DHT22;1322;53.256;10.386;2022-10-31T23:16:47;14.30;99.90
2625;DHT22;1322;53.256;10.386;2022-10-31T23:19:16;14.40;99.90
2625;DHT22;1322;53.256;10.386;2022-10-31T23:21:45;14.50;99.90
2625;DHT22;1322;53.256;10.386;2022-10-31T23:24:36;14.60;99.90
2625;DHT22;1322;53.256;10.386;2022-10-31T23:27:05;14.60;99.90
2625;DHT22;1322;53.256;10.386;2022-10-31T23:30:03;14.60;99.90
2625;DHT22;1322;53.256;10.386;2022-10-31T23:32:35;14.60;99.90
2625;DHT22;1322;53.256;10.386;2022-10-31T23:35:04;14.60;99.90
2625;DHT22;1322;53.256;10.386;2022-10-31T23:37:32;14.50;99.90
2625;DHT22;1322;53.256;10.386;2022-10-31T23:39:58;14.50;99.90
2625;DHT22;1322;53.256;10.386;2022-10-31T23:42:25;14.40;99.90
2625;DHT22;1322;53.256;10.386;2022-10-31T23:44:51;14.50;99.90
2625;DHT22;1322;53.256;10.386;2022-10-31T23:47:17;14.50;99.90
2625;DHT22;1322;53.256;10.386;2022-10-31T23:49:42;14.50;99.90
2625;DHT22;1322;53.256;10.386;2022-10-31T23:52:08;14.50;99.90
2625;DHT22;1322;53.256;10.386;2022-10-31T23:54:34;14.50;99.90
2625;DHT22;1322;53.256;10.386;2022-10-31T23:57:00;14.50;99.90
2625;DHT22;1322;53.256;10.386;2022-10-31T23:59:26;14.60;99.90
